| time (UTC) | temp F | wind direction | speed MPH | gust MPH | rain 1hr in | rain 24hr in | rain mn in | humidity % | barometer mb |
| 20260504141201 | 77 | 95 | 9.0 | 16.0 | 0.00 | 0.00 | 0.00 | 45 | 1014.7 |
| 20260504141103 | 77 | 77 | 4.0 | 16.0 | 0.00 | 0.00 | 0.00 | 46 | 1014.7 |
| 20260504141001 | 77 | 78 | 10.0 | 16.0 | 0.00 | 0.00 | 0.00 | 46 | 1014.6 |
| 20260504140901 | 77 | 78 | 5.0 | 16.0 | 0.00 | 0.00 | 0.00 | 42 | 1014.6 |
| 20260504140805 | 77 | 11 | 6.0 | 16.0 | 0.00 | 0.00 | 0.00 | 43 | 1014.6 |
| 20260504140700 | 77 | 43 | 7.0 | 16.0 | 0.00 | 0.00 | 0.00 | 43 | 1014.7 |
| 20260504140503 | 77 | 69 | 10.0 | 16.0 | 0.00 | 0.00 | 0.00 | 43 | 1014.6 |
| 20260504140401 | 77 | 57 | 14.0 | 16.0 | 0.00 | 0.00 | 0.00 | 47 | 1014.7 |
| 20260504140301 | 77 | 77 | 13.0 | 16.0 | 0.00 | 0.00 | 0.00 | 46 | 1014.6 |
| 20260504140203 | 77 | 94 | 16.0 | 17.0 | 0.00 | 0.00 | 0.00 | 45 | 1014.7 |
| 20260504140117 | 77 | 55 | 3.0 | 17.0 | 0.00 | 0.00 | 0.00 | 45 | 1014.7 |
| 20260504130702 | 78 | 101 | 9.0 | 14.0 | 0.00 | 0.00 | 0.00 | 48 | 1015.2 |
| 20260504130259 | 78 | 86 | 6.0 | 15.0 | 0.00 | 0.00 | 0.00 | 48 | 1015.2 |
| 20260504130202 | 78 | 97 | 6.0 | 15.0 | 0.00 | 0.00 | 0.00 | 50 | 1015.2 |
| 20260504120259 | 78 | 42 | 2.0 | 4.0 | 0.00 | 0.00 | 0.00 | 38 | 1015.5 |
| 20260504120117 | 78 | 35 | 3.0 | 4.0 | 0.00 | 0.00 | 0.00 | 38 | 1015.5 |
| 20260504110601 | 77 | 298 | 1.0 | 9.0 | 0.00 | 0.00 | 0.00 | 40 | 1016.1 |
| 20260504110401 | 77 | 5 | 1.0 | 9.0 | 0.00 | 0.00 | 0.00 | 44 | 1016.2 |
| 20260504110300 | 77 | 346 | 1.0 | 9.0 | 0.00 | 0.00 | 0.00 | 37 | 1016.2 |
| 20260504110203 | 77 | 346 | 4.0 | 9.0 | 0.00 | 0.00 | 0.00 | 40 | 1016.2 |
| 20260504100559 | 74 | 267 | 5.0 | 8.0 | 0.00 | 0.00 | 0.00 | 40 | 1016.6 |
| 20260504100504 | 74 | 273 | 5.0 | 8.0 | 0.00 | 0.00 | 0.00 | 41 | 1016.6 |
| 20260504100400 | 74 | 263 | 5.0 | 8.0 | 0.00 | 0.00 | 0.00 | 40 | 1016.6 |
| 20260504100204 | 74 | 275 | 8.0 | 8.0 | 0.00 | 0.00 | 0.00 | 40 | 1016.6 |
| 20260504100116 | 74 | 232 | 6.0 | 6.0 | 0.00 | 0.00 | 0.00 | 41 | 1016.7 |
| 20260504082006 | 73 | 138 | 2.0 | 5.0 | 0.00 | 0.00 | 0.00 | 48 | 1016.8 |
| 20260504081859 | 73 | 129 | 3.0 | 5.0 | 0.00 | 0.00 | 0.00 | 49 | 1016.8 |
| 20260504081800 | 73 | 128 | 3.0 | 5.0 | 0.00 | 0.00 | 0.00 | 49 | 1016.8 |
| 20260504081702 | 73 | 132 | 3.0 | 5.0 | 0.00 | 0.00 | 0.00 | 46 | 1016.8 |
| 20260504081600 | 72 | 142 | 5.0 | 5.0 | 0.00 | 0.00 | 0.00 | 49 | 1016.8 |
| 20260504081500 | 72 | 116 | 2.0 | 5.0 | 0.00 | 0.00 | 0.00 | 50 | 1016.8 |
| 20260504081403 | 72 | 126 | 4.0 | 4.0 | 0.00 | 0.00 | 0.00 | 48 | 1016.8 |
| 20260504081259 | 72 | 107 | 2.0 | 4.0 | 0.00 | 0.00 | 0.00 | 47 | 1016.8 |
| 20260504081159 | 72 | 118 | 2.0 | 4.0 | 0.00 | 0.00 | 0.00 | 49 | 1016.8 |
| 20260504081102 | 72 | 122 | 4.0 | 5.0 | 0.00 | 0.00 | 0.00 | 47 | 1016.9 |
| 20260504081000 | 72 | 59 | 1.0 | 5.0 | 0.00 | 0.00 | 0.00 | 47 | 1016.9 |
| 20260504080859 | 72 | 59 | 0.0 | 5.0 | 0.00 | 0.00 | 0.00 | 46 | 1016.8 |
| 20260504080802 | 73 | 59 | 1.0 | 5.0 | 0.00 | 0.00 | 0.00 | 48 | 1016.9 |
| 20260504080659 | 73 | 59 | 2.0 | 5.0 | 0.00 | 0.00 | 0.00 | 50 | 1016.9 |
| 20260504080602 | 73 | 78 | 4.0 | 5.0 | 0.00 | 0.00 | 0.00 | 49 | 1016.9 |
| 20260504080400 | 73 | 121 | 4.0 | 5.0 | 0.00 | 0.00 | 0.00 | 49 | 1016.9 |
| 20260504080300 | 72 | 121 | 3.0 | 5.0 | 0.00 | 0.00 | 0.00 | 51 | 1016.9 |
| 20260504080203 | 72 | 121 | 2.0 | 5.0 | 0.00 | 0.00 | 0.00 | 50 | 1016.8 |
| 20260504080134 | 72 | 119 | 4.0 | 5.0 | 0.00 | 0.00 | 0.00 | 53 | 1016.8 |
| 20260504070300 | 67 | 182 | 1.0 | 2.0 | 0.00 | 0.00 | 0.00 | 56 | 1016.7 |
| 20260504060203 | 59 | 111 | 0.0 | 1.0 | 0.00 | 0.00 | 0.00 | 75 | 1016.3 |
| 20260504060115 | 59 | 111 | 0.0 | 2.0 | 0.00 | 0.00 | 0.00 | 76 | 1016.3 |
| 20260504050659 | 48 | 207 | 2.0 | 4.0 | 0.00 | 0.00 | 0.00 | 87 | 1016.0 |
| 20260504050559 | 48 | 207 | 3.0 | 4.0 | 0.00 | 0.00 | 0.00 | 87 | 1016.0 |
| 20260504050502 | 48 | 208 | 3.0 | 3.0 | 0.00 | 0.00 | 0.00 | 87 | 1016.0 |
| 20260504050359 | 48 | 208 | 2.0 | 3.0 | 0.00 | 0.00 | 0.00 | 87 | 1016.0 |
| 20260504050202 | 47 | 219 | 3.0 | 3.0 | 0.00 | 0.00 | 0.00 | 87 | 1016.0 |
| 20260504045902 | 47 | 219 | 1.0 | 3.0 | 0.00 | 0.00 | 0.00 | 87 | 1015.9 |
| 20260504045759 | 47 | 219 | 2.0 | 3.0 | 0.00 | 0.00 | 0.00 | 87 | 1016.0 |
| 20260504045659 | 47 | 220 | 1.0 | 3.0 | 0.00 | 0.00 | 0.00 | 87 | 1016.0 |
| 20260504045602 | 47 | 220 | 1.0 | 3.0 | 0.00 | 0.00 | 0.00 | 87 | 1016.0 |
| 20260504045500 | 47 | 220 | 1.0 | 3.0 | 0.00 | 0.00 | 0.00 | 87 | 1016.0 |
| 20260504045359 | 47 | 220 | 2.0 | 3.0 | 0.00 | 0.00 | 0.00 | 87 | 1016.0 |
| 20260504045304 | 47 | 220 | 1.0 | 3.0 | 0.00 | 0.00 | 0.00 | 88 | 1016.0 |
| 20260504045100 | 46 | 202 | 2.0 | 3.0 | 0.00 | 0.00 | 0.00 | 88 | 1016.0 |
| 20260504045004 | 46 | 202 | 2.0 | 3.0 | 0.00 | 0.00 | 0.00 | 88 | 1016.0 |
| 20260504044859 | 46 | 202 | 1.0 | 3.0 | 0.00 | 0.00 | 0.00 | 88 | 1016.0 |
| 20260504044759 | 46 | 201 | 2.0 | 3.0 | 0.00 | 0.00 | 0.00 | 87 | 1016.0 |
| 20260504044702 | 46 | 201 | 2.0 | 3.0 | 0.00 | 0.00 | 0.00 | 87 | 1016.0 |
| 20260504044559 | 46 | 198 | 2.0 | 3.0 | 0.00 | 0.00 | 0.00 | 87 | 1016.0 |
| 20260504044402 | 46 | 198 | 1.0 | 3.0 | 0.00 | 0.00 | 0.00 | 87 | 1016.0 |
| 20260504044259 | 46 | 198 | 3.0 | 3.0 | 0.00 | 0.00 | 0.00 | 87 | 1016.0 |
| 20260504044159 | 46 | 189 | 2.0 | 3.0 | 0.00 | 0.00 | 0.00 | 87 | 1015.9 |
| 20260504044104 | 45 | 188 | 2.0 | 3.0 | 0.00 | 0.00 | 0.00 | 87 | 1016.0 |
| 20260504044000 | 45 | 187 | 3.0 | 3.0 | 0.00 | 0.00 | 0.00 | 87 | 1015.9 |
| 20260504043859 | 45 | 188 | 2.0 | 3.0 | 0.00 | 0.00 | 0.00 | 87 | 1015.9 |
| 20260504043802 | 45 | 188 | 3.0 | 3.0 | 0.00 | 0.00 | 0.00 | 87 | 1015.9 |
| 20260504043659 | 45 | 188 | 1.0 | 2.0 | 0.00 | 0.00 | 0.00 | 87 | 1015.9 |
| 20260504043559 | 45 | 188 | 1.0 | 2.0 | 0.00 | 0.00 | 0.00 | 87 | 1015.9 |
| 20260504043504 | 45 | 188 | 0.0 | 1.0 | 0.00 | 0.00 | 0.00 | 87 | 1015.9 |
| 20260504043259 | 45 | 188 | 0.0 | 2.0 | 0.00 | 0.00 | 0.00 | 87 | 1015.9 |
| 20260504043202 | 45 | 188 | 0.0 | 2.0 | 0.00 | 0.00 | 0.00 | 87 | 1015.9 |
| 20260504043059 | 45 | 188 | 0.0 | 3.0 | 0.00 | 0.00 | 0.00 | 87 | 1015.9 |
| 20260504043001 | 45 | 188 | 0.0 | 4.0 | 0.00 | 0.00 | 0.00 | 87 | 1015.9 |
| 20260504042902 | 45 | 188 | 0.0 | 4.0 | 0.00 | 0.00 | 0.00 | 87 | 1015.9 |
| 20260504042759 | 45 | 188 | 1.0 | 4.0 | 0.00 | 0.00 | 0.00 | 87 | 1015.9 |
| 20260504042700 | 45 | 188 | 0.0 | 4.0 | 0.00 | 0.00 | 0.00 | 87 | 1016.0 |
| 20260504042602 | 45 | 188 | 0.0 | 4.0 | 0.00 | 0.00 | 0.00 | 87 | 1015.9 |
| 20260504042459 | 45 | 188 | 0.0 | 4.0 | 0.00 | 0.00 | 0.00 | 87 | 1015.9 |
| 20260504042359 | 45 | 188 | 1.0 | 4.0 | 0.00 | 0.00 | 0.00 | 87 | 1015.9 |
| 20260504042200 | 45 | 188 | 2.0 | 4.0 | 0.00 | 0.00 | 0.00 | 86 | 1015.9 |
| 20260504042059 | 45 | 188 | 3.0 | 4.0 | 0.00 | 0.00 | 0.00 | 86 | 1015.9 |
| 20260504042004 | 45 | 181 | 4.0 | 4.0 | 0.00 | 0.00 | 0.00 | 86 | 1015.9 |
| 20260504041859 | 45 | 175 | 3.0 | 4.0 | 0.00 | 0.00 | 0.00 | 86 | 1015.9 |
| 20260504041759 | 45 | 166 | 3.0 | 4.0 | 0.00 | 0.00 | 0.00 | 86 | 1015.9 |
| 20260504041703 | 45 | 165 | 3.0 | 4.0 | 0.00 | 0.00 | 0.00 | 86 | 1015.9 |
| 20260504041402 | 45 | 163 | 1.0 | 4.0 | 0.00 | 0.00 | 0.00 | 86 | 1015.9 |
| 20260504041259 | 45 | 163 | 2.0 | 4.0 | 0.00 | 0.00 | 0.00 | 86 | 1015.9 |
| 20260504041159 | 45 | 165 | 2.0 | 4.0 | 0.00 | 0.00 | 0.00 | 86 | 1015.9 |
| 20260504041102 | 45 | 165 | 2.0 | 5.0 | 0.00 | 0.00 | 0.00 | 86 | 1015.9 |
| 20260504041000 | 45 | 190 | 3.0 | 5.0 | 0.00 | 0.00 | 0.00 | 86 | 1015.8 |
| 20260504040859 | 45 | 190 | 4.0 | 5.0 | 0.00 | 0.00 | 0.00 | 86 | 1015.9 |
| 20260504040803 | 45 | 190 | 1.0 | 5.0 | 0.00 | 0.00 | 0.00 | 86 | 1015.8 |
| 20260504040559 | 45 | 194 | 2.0 | 5.0 | 0.00 | 0.00 | 0.00 | 86 | 1015.9 |
| 20260504040502 | 45 | 194 | 1.0 | 5.0 | 0.00 | 0.00 | 0.00 | 86 | 1015.9 |
| 20260504040400 | 45 | 194 | 3.0 | 5.0 | 0.00 | 0.00 | 0.00 | 86 | 1015.9 |
| 20260504040259 | 45 | 228 | 2.0 | 5.0 | 0.00 | 0.00 | 0.00 | 86 | 1015.9 |
| 20260504040202 | 45 | 184 | 2.0 | 5.0 | 0.00 | 0.00 | 0.00 | 85 | 1015.9 |
| 20260504040114 | 45 | 223 | 3.0 | 4.0 | 0.00 | 0.00 | 0.00 | 85 | 1015.9 |
| 20260504040004 | 45 | 224 | 2.0 | 4.0 | 0.00 | 0.00 | 0.00 | 85 | 1015.9 |
| 20260504035903 | 45 | 215 | 3.0 | 4.0 | 0.00 | 0.00 | 0.00 | 85 | 1015.9 |
| 20260504035800 | 45 | 211 | 2.0 | 4.0 | 0.00 | 0.00 | 0.00 | 85 | 1015.9 |
| 20260504035659 | 45 | 211 | 2.0 | 3.0 | 0.00 | 0.00 | 0.00 | 85 | 1015.9 |
| 20260504035603 | 45 | 212 | 3.0 | 3.0 | 0.00 | 0.00 | 0.00 | 85 | 1015.9 |
| 20260504035359 | 45 | 242 | 3.0 | 3.0 | 0.00 | 0.00 | 0.00 | 85 | 1015.8 |
| 20260504035304 | 45 | 242 | 2.0 | 3.0 | 0.00 | 0.00 | 0.00 | 85 | 1015.9 |
| 20260504035159 | 46 | 242 | 1.0 | 3.0 | 0.00 | 0.00 | 0.00 | 85 | 1015.9 |
| 20260504035059 | 46 | 242 | 2.0 | 3.0 | 0.00 | 0.00 | 0.00 | 85 | 1015.9 |
| 20260504035004 | 46 | 244 | 2.0 | 3.0 | 0.00 | 0.00 | 0.00 | 85 | 1015.9 |
| 20260504034703 | 46 | 248 | 2.0 | 3.0 | 0.00 | 0.00 | 0.00 | 85 | 1015.8 |
| 20260504034559 | 46 | 248 | 3.0 | 4.0 | 0.00 | 0.00 | 0.00 | 85 | 1015.8 |
| 20260504034500 | 46 | 247 | 2.0 | 5.0 | 0.00 | 0.00 | 0.00 | 85 | 1015.8 |
| 20260504034402 | 46 | 173 | 3.0 | 6.0 | 0.00 | 0.00 | 0.00 | 85 | 1015.9 |
| 20260504034259 | 45 | 173 | 3.0 | 6.0 | 0.00 | 0.00 | 0.00 | 85 | 1015.8 |
| 20260504034159 | 46 | 173 | 2.0 | 6.0 | 0.00 | 0.00 | 0.00 | 85 | 1015.9 |
| 20260504034102 | 46 | 173 | 1.0 | 6.0 | 0.00 | 0.00 | 0.00 | 85 | 1015.8 |
| 20260504034000 | 46 | 174 | 0.0 | 6.0 | 0.00 | 0.00 | 0.00 | 85 | 1015.8 |
| 20260504033900 | 46 | 173 | 0.0 | 6.0 | 0.00 | 0.00 | 0.00 | 84 | 1015.8 |
| 20260504033659 | 46 | 173 | 1.0 | 7.0 | 0.00 | 0.00 | 0.00 | 84 | 1015.8 |
| 20260504033559 | 46 | 173 | 3.0 | 7.0 | 0.00 | 0.00 | 0.00 | 84 | 1015.8 |
| 20260504033502 | 46 | 181 | 4.0 | 7.0 | 0.00 | 0.00 | 0.00 | 84 | 1015.8 |
| 20260504033359 | 46 | 187 | 5.0 | 7.0 | 0.00 | 0.00 | 0.00 | 84 | 1015.8 |
| 20260504033259 | 46 | 188 | 3.0 | 7.0 | 0.00 | 0.00 | 0.00 | 84 | 1015.8 |
| 20260504033202 | 46 | 198 | 5.0 | 7.0 | 0.00 | 0.00 | 0.00 | 85 | 1015.8 |
| 20260504033059 | 46 | 195 | 4.0 | 7.0 | 0.00 | 0.00 | 0.00 | 85 | 1015.8 |
| 20260504032959 | 46 | 202 | 4.0 | 7.0 | 0.00 | 0.00 | 0.00 | 85 | 1015.8 |
| 20260504032905 | 46 | 202 | 5.0 | 7.0 | 0.00 | 0.00 | 0.00 | 85 | 1015.8 |
| 20260504032801 | 46 | 200 | 6.0 | 7.0 | 0.00 | 0.00 | 0.00 | 84 | 1015.8 |
| 20260504032659 | 46 | 218 | 4.0 | 6.0 | 0.00 | 0.00 | 0.00 | 84 | 1015.8 |
| 20260504032602 | 46 | 216 | 5.0 | 6.0 | 0.00 | 0.00 | 0.00 | 84 | 1015.8 |
| 20260504032501 | 46 | 218 | 4.0 | 6.0 | 0.00 | 0.00 | 0.00 | 84 | 1015.8 |
| 20260504032304 | 46 | 211 | 4.0 | 6.0 | 0.00 | 0.00 | 0.00 | 84 | 1015.9 |
| 20260504032159 | 46 | 211 | 4.0 | 7.0 | 0.00 | 0.00 | 0.00 | 84 | 1015.9 |
| 20260504032059 | 46 | 211 | 5.0 | 7.0 | 0.00 | 0.00 | 0.00 | 84 | 1015.8 |
| 20260504032002 | 46 | 202 | 5.0 | 7.0 | 0.00 | 0.00 | 0.00 | 84 | 1015.8 |
| 20260504031901 | 46 | 192 | 5.0 | 7.0 | 0.00 | 0.00 | 0.00 | 85 | 1015.8 |
| 20260504031759 | 46 | 192 | 5.0 | 7.0 | 0.00 | 0.00 | 0.00 | 85 | 1015.9 |
| 20260504031702 | 46 | 192 | 5.0 | 7.0 | 0.00 | 0.00 | 0.00 | 85 | 1015.9 |
| 20260504031600 | 46 | 193 | 6.0 | 7.0 | 0.00 | 0.00 | 0.00 | 85 | 1015.8 |
| 20260504031459 | 46 | 184 | 5.0 | 7.0 | 0.00 | 0.00 | 0.00 | 85 | 1015.8 |
| 20260504031402 | 46 | 180 | 3.0 | 7.0 | 0.00 | 0.00 | 0.00 | 85 | 1015.9 |
| 20260504031259 | 46 | 176 | 4.0 | 7.0 | 0.00 | 0.00 | 0.00 | 85 | 1015.8 |
| 20260504031159 | 46 | 181 | 6.0 | 7.0 | 0.00 | 0.00 | 0.00 | 85 | 1015.9 |
| 20260504031102 | 46 | 182 | 5.0 | 6.0 | 0.00 | 0.00 | 0.00 | 85 | 1015.9 |
| 20260504030959 | 46 | 182 | 6.0 | 6.0 | 0.00 | 0.00 | 0.00 | 85 | 1015.9 |
| 20260504030859 | 46 | 184 | 5.0 | 5.0 | 0.00 | 0.00 | 0.00 | 85 | 1015.9 |
| 20260504030802 | 46 | 175 | 2.0 | 5.0 | 0.00 | 0.00 | 0.00 | 85 | 1015.8 |
| 20260504030659 | 46 | 183 | 3.0 | 5.0 | 0.00 | 0.00 | 0.00 | 85 | 1015.8 |
| 20260504030559 | 46 | 177 | 3.0 | 5.0 | 0.00 | 0.00 | 0.00 | 85 | 1015.9 |
| 20260504030502 | 46 | 194 | 4.0 | 5.0 | 0.00 | 0.00 | 0.00 | 84 | 1015.9 |
| 20260504030359 | 46 | 194 | 4.0 | 5.0 | 0.00 | 0.00 | 0.00 | 84 | 1015.9 |
| 20260504030004 | 46 | 217 | 3.0 | 5.0 | 0.00 | 0.00 | 0.00 | 84 | 1015.9 |
| 20260504025903 | 46 | 217 | 3.0 | 5.0 | 0.00 | 0.00 | 0.00 | 84 | 1015.9 |
| 20260504025759 | 46 | 217 | 4.0 | 5.0 | 0.00 | 0.00 | 0.00 | 84 | 1016.0 |
| 20260504025700 | 46 | 205 | 5.0 | 5.0 | 0.00 | 0.00 | 0.00 | 84 | 1015.9 |
| 20260504025605 | 46 | 205 | 4.0 | 5.0 | 0.00 | 0.00 | 0.00 | 84 | 1015.9 |
| 20260504025500 | 46 | 205 | 4.0 | 5.0 | 0.00 | 0.00 | 0.00 | 85 | 1015.9 |
| 20260504025401 | 46 | 198 | 4.0 | 6.0 | 0.00 | 0.00 | 0.00 | 85 | 1015.9 |
| 20260504025306 | 46 | 186 | 4.0 | 6.0 | 0.00 | 0.00 | 0.00 | 85 | 1015.9 |
| 20260504025201 | 46 | 185 | 3.0 | 6.0 | 0.00 | 0.00 | 0.00 | 85 | 1015.9 |
| 20260504025105 | 46 | 184 | 3.0 | 7.0 | 0.00 | 0.00 | 0.00 | 85 | 1015.8 |
| 20260504025006 | 46 | 184 | 3.0 | 7.0 | 0.00 | 0.00 | 0.00 | 84 | 1015.8 |
| 20260504024901 | 46 | 184 | 4.0 | 7.0 | 0.00 | 0.00 | 0.00 | 84 | 1015.9 |
| 20260504024802 | 46 | 184 | 4.0 | 7.0 | 0.00 | 0.00 | 0.00 | 84 | 1015.9 |
| 20260504024703 | 46 | 177 | 3.0 | 7.0 | 0.00 | 0.00 | 0.00 | 84 | 1015.9 |
| 20260504024559 | 46 | 180 | 2.0 | 7.0 | 0.00 | 0.00 | 0.00 | 84 | 1015.9 |
| 20260504024459 | 46 | 181 | 3.0 | 7.0 | 0.00 | 0.00 | 0.00 | 84 | 1015.9 |
| 20260504024402 | 46 | 180 | 5.0 | 7.0 | 0.00 | 0.00 | 0.00 | 84 | 1016.0 |
| 20260504024259 | 46 | 182 | 5.0 | 7.0 | 0.00 | 0.00 | 0.00 | 84 | 1015.9 |
| 20260504024159 | 46 | 174 | 4.0 | 7.0 | 0.00 | 0.00 | 0.00 | 84 | 1015.9 |
| 20260504024103 | 46 | 186 | 5.0 | 6.0 | 0.00 | 0.00 | 0.00 | 84 | 1015.9 |
| 20260504024000 | 46 | 186 | 5.0 | 6.0 | 0.00 | 0.00 | 0.00 | 84 | 1016.0 |
| 20260504023859 | 46 | 186 | 5.0 | 6.0 | 0.00 | 0.00 | 0.00 | 84 | 1016.0 |
| 20260504023803 | 46 | 195 | 5.0 | 6.0 | 0.00 | 0.00 | 0.00 | 84 | 1015.9 |
| 20260504023659 | 46 | 175 | 1.0 | 6.0 | 0.00 | 0.00 | 0.00 | 84 | 1016.0 |
| 20260504023503 | 46 | 189 | 4.0 | 6.0 | 0.00 | 0.00 | 0.00 | 83 | 1016.0 |
| 20260504023359 | 46 | 188 | 4.0 | 6.0 | 0.00 | 0.00 | 0.00 | 83 | 1016.0 |
| 20260504023259 | 46 | 188 | 4.0 | 6.0 | 0.00 | 0.00 | 0.00 | 83 | 1016.0 |
| 20260504023202 | 46 | 188 | 2.0 | 6.0 | 0.00 | 0.00 | 0.00 | 83 | 1016.0 |
| 20260504023059 | 46 | 188 | 5.0 | 5.0 | 0.00 | 0.00 | 0.00 | 83 | 1016.0 |
| 20260504022902 | 47 | 173 | 4.0 | 4.0 | 0.00 | 0.00 | 0.00 | 83 | 1016.0 |
| 20260504022759 | 47 | 173 | 1.0 | 4.0 | 0.00 | 0.00 | 0.00 | 83 | 1016.0 |
| 20260504022602 | 47 | 173 | 4.0 | 4.0 | 0.00 | 0.00 | 0.00 | 83 | 1016.0 |
| 20260504022459 | 47 | 173 | 3.0 | 4.0 | 0.00 | 0.00 | 0.00 | 83 | 1016.0 |
| 20260504022304 | 47 | 173 | 1.0 | 5.0 | 0.00 | 0.00 | 0.00 | 83 | 1016.0 |
| 20260504022159 | 47 | 173 | 4.0 | 5.0 | 0.00 | 0.00 | 0.00 | 83 | 1016.0 |
| 20260504022059 | 47 | 173 | 3.0 | 5.0 | 0.00 | 0.00 | 0.00 | 83 | 1016.1 |
| 20260504022002 | 47 | 173 | 4.0 | 5.0 | 0.00 | 0.00 | 0.00 | 83 | 1016.0 |
| 20260504021859 | 47 | 173 | 3.0 | 5.0 | 0.00 | 0.00 | 0.00 | 83 | 1016.1 |
| 20260504021759 | 47 | 173 | 2.0 | 5.0 | 0.00 | 0.00 | 0.00 | 83 | 1016.0 |
| 20260504021702 | 47 | 173 | 1.0 | 5.0 | 0.00 | 0.00 | 0.00 | 83 | 1016.0 |
| 20260504021601 | 47 | 173 | 2.0 | 5.0 | 0.00 | 0.00 | 0.00 | 83 | 1016.0 |
| 20260504021402 | 47 | 173 | 1.0 | 5.0 | 0.00 | 0.00 | 0.00 | 83 | 1016.1 |
| 20260504021259 | 48 | 173 | 4.0 | 4.0 | 0.00 | 0.00 | 0.00 | 83 | 1016.0 |
| 20260504021102 | 48 | 173 | 1.0 | 4.0 | 0.00 | 0.00 | 0.00 | 83 | 1016.0 |
| 20260504021001 | 48 | 142 | 1.0 | 4.0 | 0.00 | 0.00 | 0.00 | 83 | 1016.0 |
| 20260504020859 | 48 | 142 | 1.0 | 4.0 | 0.00 | 0.00 | 0.00 | 83 | 1016.0 |
| 20260504020803 | 48 | 142 | 1.0 | 4.0 | 0.00 | 0.00 | 0.00 | 83 | 1016.0 |
| 20260504020701 | 48 | 142 | 1.0 | 4.0 | 0.00 | 0.00 | 0.00 | 83 | 1016.0 |
| 20260504020559 | 48 | 142 | 1.0 | 4.0 | 0.00 | 0.00 | 0.00 | 83 | 1016.1 |
| 20260504020502 | 48 | 142 | 1.0 | 4.0 | 0.00 | 0.00 | 0.00 | 82 | 1016.1 |
| 20260504020359 | 48 | 142 | 1.0 | 4.0 | 0.00 | 0.00 | 0.00 | 82 | 1016.1 |
| 20260504020259 | 48 | 142 | 2.0 | 4.0 | 0.00 | 0.00 | 0.00 | 82 | 1016.1 |
| 20260504020203 | 48 | 142 | 2.0 | 4.0 | 0.00 | 0.00 | 0.00 | 82 | 1016.1 |
| 20260504015902 | 48 | 195 | 1.0 | 3.0 | 0.00 | 0.00 | 0.00 | 81 | 1016.0 |
| 20260504015800 | 48 | 195 | 2.0 | 3.0 | 0.00 | 0.00 | 0.00 | 81 | 1016.0 |
| 20260504015659 | 48 | 195 | 2.0 | 3.0 | 0.00 | 0.00 | 0.00 | 81 | 1016.0 |
| 20260504015603 | 48 | 195 | 2.0 | 3.0 | 0.00 | 0.00 | 0.00 | 81 | 1016.1 |
| 20260504015401 | 48 | 195 | 1.0 | 3.0 | 0.00 | 0.00 | 0.00 | 81 | 1016.0 |
| 20260504015305 | 48 | 195 | 1.0 | 3.0 | 0.00 | 0.00 | 0.00 | 81 | 1016.0 |
| 20260504015100 | 48 | 255 | 3.0 | 4.0 | 0.00 | 0.00 | 0.00 | 81 | 1016.0 |
| 20260504015005 | 49 | 255 | 2.0 | 4.0 | 0.00 | 0.00 | 0.00 | 81 | 1016.0 |
| 20260504014901 | 49 | 255 | 2.0 | 4.0 | 0.00 | 0.00 | 0.00 | 81 | 1016.0 |
| 20260504014801 | 49 | 255 | 2.0 | 4.0 | 0.00 | 0.00 | 0.00 | 81 | 1016.0 |
| 20260504014704 | 49 | 255 | 3.0 | 4.0 | 0.00 | 0.00 | 0.00 | 81 | 1016.0 |
| 20260504014600 | 49 | 255 | 2.0 | 4.0 | 0.00 | 0.00 | 0.00 | 81 | 1016.0 |
| 20260504014459 | 49 | 255 | 2.0 | 4.0 | 0.00 | 0.00 | 0.00 | 81 | 1016.0 |
| 20260504014402 | 49 | 255 | 2.0 | 4.0 | 0.00 | 0.00 | 0.00 | 81 | 1016.0 |
| 20260504014259 | 49 | 255 | 2.0 | 4.0 | 0.00 | 0.00 | 0.00 | 81 | 1016.0 |
| 20260504014159 | 49 | 255 | 2.0 | 4.0 | 0.00 | 0.00 | 0.00 | 80 | 1016.1 |
| 20260504014103 | 49 | 355 | 1.0 | 3.0 | 0.00 | 0.00 | 0.00 | 80 | 1016.1 |
| 20260504014000 | 49 | 355 | 1.0 | 3.0 | 0.00 | 0.00 | 0.00 | 80 | 1016.0 |
| 20260504013900 | 50 | 355 | 1.0 | 3.0 | 0.00 | 0.00 | 0.00 | 79 | 1016.0 |
| 20260504013700 | 50 | 355 | 2.0 | 3.0 | 0.00 | 0.00 | 0.00 | 79 | 1016.0 |
| 20260504013559 | 50 | 355 | 3.0 | 3.0 | 0.00 | 0.00 | 0.00 | 79 | 1016.0 |
| 20260504013503 | 50 | 355 | 3.0 | 4.0 | 0.00 | 0.00 | 0.00 | 79 | 1016.0 |
| 20260504013359 | 50 | 355 | 2.0 | 4.0 | 0.00 | 0.00 | 0.00 | 79 | 1016.0 |
| 20260504013259 | 50 | 355 | 2.0 | 4.0 | 0.00 | 0.00 | 0.00 | 78 | 1016.0 |
| 20260504013202 | 50 | 355 | 3.0 | 4.0 | 0.00 | 0.00 | 0.00 | 78 | 1016.0 |
| 20260504013101 | 51 | 355 | 2.0 | 4.0 | 0.00 | 0.00 | 0.00 | 78 | 1016.0 |
| 20260504012959 | 51 | 355 | 2.0 | 4.0 | 0.00 | 0.00 | 0.00 | 78 | 1016.0 |
| 20260504012901 | 51 | 355 | 1.0 | 4.0 | 0.00 | 0.00 | 0.00 | 78 | 1016.0 |
| 20260504012759 | 51 | 355 | 1.0 | 4.0 | 0.00 | 0.00 | 0.00 | 77 | 1016.0 |
| 20260504012659 | 51 | 355 | 2.0 | 4.0 | 0.00 | 0.00 | 0.00 | 77 | 1016.0 |
| 20260504012602 | 51 | 355 | 2.0 | 4.0 | 0.00 | 0.00 | 0.00 | 77 | 1016.0 |
| 20260504012500 | 51 | 355 | 2.0 | 4.0 | 0.00 | 0.00 | 0.00 | 77 | 1016.0 |
| 20260504012359 | 51 | 355 | 2.0 | 4.0 | 0.00 | 0.00 | 0.00 | 77 | 1016.0 |
| 20260504012159 | 51 | 355 | 3.0 | 4.0 | 0.00 | 0.00 | 0.00 | 77 | 1016.0 |
| 20260504012059 | 51 | 355 | 3.0 | 4.0 | 0.00 | 0.00 | 0.00 | 76 | 1016.0 |
| 20260504012002 | 51 | 355 | 2.0 | 4.0 | 0.00 | 0.00 | 0.00 | 76 | 1016.1 |
| 20260504011703 | 52 | 91 | 2.0 | 3.0 | 0.00 | 0.00 | 0.00 | 75 | 1016.0 |
| 20260504011559 | 52 | 91 | 1.0 | 3.0 | 0.00 | 0.00 | 0.00 | 75 | 1016.0 |
| 20260504011459 | 52 | 91 | 1.0 | 3.0 | 0.00 | 0.00 | 0.00 | 75 | 1015.9 |
| 20260504011403 | 52 | 91 | 1.0 | 3.0 | 0.00 | 0.00 | 0.00 | 74 | 1015.9 |
| 20260504011159 | 52 | 91 | 1.0 | 3.0 | 0.00 | 0.00 | 0.00 | 74 | 1015.9 |
| 20260504011102 | 52 | 91 | 1.0 | 3.0 | 0.00 | 0.00 | 0.00 | 74 | 1015.9 |
| 20260504011000 | 53 | 91 | 1.0 | 3.0 | 0.00 | 0.00 | 0.00 | 73 | 1015.9 |
| 20260504010802 | 53 | 91 | 2.0 | 3.0 | 0.00 | 0.00 | 0.00 | 73 | 1015.8 |
| 20260504010559 | 53 | 91 | 1.0 | 3.0 | 0.00 | 0.00 | 0.00 | 72 | 1015.8 |
| 20260504010502 | 54 | 91 | 2.0 | 3.0 | 0.00 | 0.00 | 0.00 | 72 | 1015.8 |
| 20260504010400 | 54 | 91 | 2.0 | 3.0 | 0.00 | 0.00 | 0.00 | 71 | 1015.9 |
| 20260504010259 | 54 | 91 | 2.0 | 3.0 | 0.00 | 0.00 | 0.00 | 71 | 1015.9 |
| 20260504010202 | 54 | 91 | 3.0 | 3.0 | 0.00 | 0.00 | 0.00 | 71 | 1015.9 |
| 20260504010100 | 54 | 91 | 3.0 | 3.0 | 0.00 | 0.00 | 0.00 | 71 | 1015.9 |
| 20260504005902 | 54 | 91 | 2.0 | 3.0 | 0.00 | 0.00 | 0.00 | 70 | 1015.9 |
| 20260504005759 | 55 | 91 | 2.0 | 3.0 | 0.00 | 0.00 | 0.00 | 70 | 1015.9 |
| 20260504005700 | 55 | 91 | 2.0 | 3.0 | 0.00 | 0.00 | 0.00 | 70 | 1015.9 |
| 20260504005602 | 55 | 91 | 2.0 | 3.0 | 0.00 | 0.00 | 0.00 | 69 | 1015.9 |
| 20260504005500 | 55 | 91 | 2.0 | 3.0 | 0.00 | 0.00 | 0.00 | 68 | 1015.9 |
| 20260504005359 | 55 | 91 | 1.0 | 2.0 | 0.00 | 0.00 | 0.00 | 67 | 1015.9 |
| 20260504005301 | 55 | 200 | 1.0 | 2.0 | 0.00 | 0.00 | 0.00 | 67 | 1015.9 |
| 20260504005159 | 55 | 200 | 1.0 | 1.0 | 0.00 | 0.00 | 0.00 | 66 | 1015.9 |
| 20260504005059 | 55 | 200 | 0.0 | 1.0 | 0.00 | 0.00 | 0.00 | 66 | 1015.9 |
| 20260504005004 | 55 | 200 | 0.0 | 1.0 | 0.00 | 0.00 | 0.00 | 66 | 1015.9 |
| 20260504004859 | 56 | 200 | 0.0 | 1.0 | 0.00 | 0.00 | 0.00 | 66 | 1015.9 |
| 20260504004800 | 56 | 200 | 0.0 | 1.0 | 0.00 | 0.00 | 0.00 | 66 | 1015.9 |
| 20260504004559 | 56 | 200 | 0.0 | 2.0 | 0.00 | 0.00 | 0.00 | 65 | 1015.9 |
| 20260504004459 | 56 | 200 | 0.0 | 2.0 | 0.00 | 0.00 | 0.00 | 65 | 1015.9 |
| 20260504004404 | 56 | 200 | 0.0 | 2.0 | 0.00 | 0.00 | 0.00 | 65 | 1015.9 |
| 20260504004259 | 56 | 200 | 0.0 | 3.0 | 0.00 | 0.00 | 0.00 | 65 | 1015.9 |
| 20260504004159 | 56 | 200 | 0.0 | 3.0 | 0.00 | 0.00 | 0.00 | 65 | 1015.9 |
| 20260504004102 | 57 | 200 | 0.0 | 3.0 | 0.00 | 0.00 | 0.00 | 64 | 1015.9 |
| 20260504003859 | 57 | 200 | 1.0 | 3.0 | 0.00 | 0.00 | 0.00 | 64 | 1015.9 |
| 20260504003802 | 57 | 200 | 1.0 | 3.0 | 0.00 | 0.00 | 0.00 | 63 | 1015.9 |
| 20260504003700 | 57 | 202 | 1.0 | 3.0 | 0.00 | 0.00 | 0.00 | 63 | 1015.9 |
| 20260504003600 | 57 | 155 | 1.0 | 3.0 | 0.00 | 0.00 | 0.00 | 62 | 1015.9 |
| 20260504003359 | 57 | 155 | 1.0 | 3.0 | 0.00 | 0.00 | 0.00 | 62 | 1015.9 |
| 20260504003259 | 58 | 173 | 3.0 | 3.0 | 0.00 | 0.00 | 0.00 | 61 | 1015.9 |
| 20260504003202 | 58 | 208 | 2.0 | 2.0 | 0.00 | 0.00 | 0.00 | 61 | 1015.9 |
| 20260504003059 | 58 | 208 | 1.0 | 2.0 | 0.00 | 0.00 | 0.00 | 62 | 1016.0 |
| 20260504003001 | 58 | 208 | 0.0 | 2.0 | 0.00 | 0.00 | 0.00 | 63 | 1015.9 |
| 20260504002759 | 59 | 208 | 2.0 | 2.0 | 0.00 | 0.00 | 0.00 | 60 | 1015.9 |
| 20260504002603 | 59 | 208 | 2.0 | 2.0 | 0.00 | 0.00 | 0.00 | 60 | 1016.0 |
| 20260504002459 | 59 | 208 | 1.0 | 2.0 | 0.00 | 0.00 | 0.00 | 60 | 1016.0 |
| 20260504002359 | 59 | 208 | 1.0 | 2.0 | 0.00 | 0.00 | 0.00 | 59 | 1016.0 |
| 20260504002303 | 59 | 208 | 2.0 | 3.0 | 0.00 | 0.00 | 0.00 | 59 | 1016.0 |
| 20260504002159 | 60 | 208 | 0.0 | 3.0 | 0.00 | 0.00 | 0.00 | 59 | 1016.0 |
| 20260504002059 | 60 | 208 | 0.0 | 3.0 | 0.00 | 0.00 | 0.00 | 59 | 1016.0 |
| 20260504002003 | 60 | 208 | 0.0 | 3.0 | 0.00 | 0.00 | 0.00 | 59 | 1016.0 |
| 20260504001801 | 60 | 208 | 0.0 | 5.0 | 0.00 | 0.00 | 0.00 | 58 | 1016.0 |
| 20260504001600 | 61 | 208 | 0.0 | 5.0 | 0.00 | 0.00 | 0.00 | 57 | 1016.0 |
| 20260504001402 | 61 | 208 | 0.0 | 5.0 | 0.00 | 0.00 | 0.00 | 55 | 1015.9 |
| 20260504001259 | 61 | 208 | 2.0 | 5.0 | 0.00 | 0.00 | 0.00 | 54 | 1015.9 |
| 20260504001159 | 61 | 208 | 2.0 | 5.0 | 0.00 | 0.00 | 0.00 | 52 | 1016.0 |
| 20260504001103 | 61 | 196 | 2.0 | 5.0 | 0.00 | 0.00 | 0.00 | 51 | 1016.0 |
| 20260504001000 | 62 | 199 | 2.0 | 6.0 | 0.00 | 0.00 | 0.00 | 51 | 1016.0 |
| 20260504000900 | 62 | 197 | 3.0 | 7.0 | 0.00 | 0.00 | 0.00 | 51 | 1015.9 |
| 20260504000801 | 62 | 207 | 3.0 | 7.0 | 0.00 | 0.00 | 0.00 | 51 | 1015.9 |
| 20260504000659 | 62 | 206 | 5.0 | 7.0 | 0.00 | 0.00 | 0.00 | 51 | 1016.0 |
| 20260504000600 | 62 | 219 | 2.0 | 7.0 | 0.00 | 0.00 | 0.00 | 50 | 1015.9 |
| 20260504000401 | 62 | 212 | 5.0 | 7.0 | 0.00 | 0.00 | 0.00 | 51 | 1015.9 |
| 20260504000259 | 62 | 206 | 3.0 | 7.0 | 0.00 | 0.00 | 0.00 | 51 | 1015.9 |
| 20260504000204 | 62 | 196 | 3.0 | 7.0 | 0.00 | 0.00 | 0.00 | 51 | 1015.9 |
| 20260504000002 | 62 | 197 | 5.0 | 7.0 | 0.00 | 0.00 | 0.00 | 50 | 1015.9 |
| 20260503235802 | 62 | 191 | 5.0 | 6.0 | 0.00 | 0.00 | 0.00 | 50 | 1015.9 |
| 20260503235659 | 62 | 190 | 4.0 | 6.0 | 0.00 | 0.00 | 0.00 | 50 | 1015.9 |
| 20260503235607 | 62 | 195 | 3.0 | 6.0 | 0.00 | 0.00 | 0.00 | 50 | 1015.9 |
| 20260503235507 | 62 | 200 | 3.0 | 6.0 | 0.00 | 0.00 | 0.00 | 50 | 1015.9 |
| 20260503235400 | 62 | 205 | 4.0 | 6.0 | 0.00 | 0.00 | 0.00 | 50 | 1015.9 |
| 20260503235304 | 62 | 203 | 5.0 | 7.0 | 0.00 | 0.00 | 0.00 | 50 | 1016.0 |
| 20260503235201 | 62 | 211 | 6.0 | 7.0 | 0.00 | 0.00 | 0.00 | 50 | 1015.9 |
| 20260503235059 | 63 | 227 | 4.0 | 7.0 | 0.00 | 0.00 | 0.00 | 50 | 1016.0 |
| 20260503235004 | 63 | 222 | 3.0 | 7.0 | 0.00 | 0.00 | 0.00 | 50 | 1016.0 |
| 20260503234902 | 63 | 195 | 6.0 | 7.0 | 0.00 | 0.00 | 0.00 | 50 | 1016.0 |
| 20260503234759 | 63 | 220 | 3.0 | 7.0 | 0.00 | 0.00 | 0.00 | 50 | 1016.0 |
| 20260503234701 | 63 | 216 | 4.0 | 7.0 | 0.00 | 0.00 | 0.00 | 50 | 1016.0 |
| 20260503234601 | 63 | 214 | 4.0 | 8.0 | 0.00 | 0.00 | 0.00 | 50 | 1016.0 |
| 20260503234459 | 63 | 213 | 5.0 | 8.0 | 0.00 | 0.00 | 0.00 | 50 | 1015.9 |
| 20260503234403 | 63 | 209 | 4.0 | 10.0 | 0.00 | 0.00 | 0.00 | 50 | 1016.0 |
| 20260503234159 | 63 | 194 | 4.0 | 10.0 | 0.00 | 0.00 | 0.00 | 50 | 1016.0 |
| 20260503234102 | 63 | 198 | 4.0 | 10.0 | 0.00 | 0.00 | 0.00 | 50 | 1016.0 |
| 20260503234002 | 63 | 215 | 3.0 | 10.0 | 0.00 | 0.00 | 0.00 | 50 | 1016.0 |
| 20260503233859 | 63 | 184 | 4.0 | 10.0 | 0.00 | 0.00 | 0.00 | 50 | 1016.0 |
| 20260503233803 | 63 | 209 | 5.0 | 10.0 | 0.00 | 0.00 | 0.00 | 49 | 1016.0 |
| 20260503233701 | 63 | 189 | 6.0 | 10.0 | 0.00 | 0.00 | 0.00 | 49 | 1015.9 |
| 20260503233559 | 63 | 213 | 7.0 | 10.0 | 0.00 | 0.00 | 0.00 | 50 | 1016.0 |
| 20260503233502 | 63 | 190 | 8.0 | 14.0 | 0.00 | 0.00 | 0.00 | 50 | 1015.9 |
| 20260503233401 | 63 | 190 | 11.0 | 14.0 | 0.00 | 0.00 | 0.00 | 50 | 1015.9 |
| 20260503233202 | 63 | 190 | 8.0 | 14.0 | 0.00 | 0.00 | 0.00 | 50 | 1015.9 |
| 20260503233101 | 63 | 179 | 8.0 | 14.0 | 0.00 | 0.00 | 0.00 | 50 | 1015.9 |
| 20260503233006 | 63 | 182 | 8.0 | 14.0 | 0.00 | 0.00 | 0.00 | 51 | 1015.9 |
| 20260503232902 | 63 | 196 | 7.0 | 14.0 | 0.00 | 0.00 | 0.00 | 51 | 1015.9 |
| 20260503232659 | 62 | 198 | 7.0 | 14.0 | 0.00 | 0.00 | 0.00 | 52 | 1015.9 |
| 20260503232359 | 62 | 202 | 7.0 | 9.0 | 0.00 | 0.00 | 0.00 | 52 | 1015.9 |
| 20260503232305 | 62 | 210 | 7.0 | 10.0 | 0.00 | 0.00 | 0.00 | 52 | 1016.0 |
| 20260503232201 | 62 | 190 | 8.0 | 11.0 | 0.00 | 0.00 | 0.00 | 51 | 1016.0 |
| 20260503232059 | 62 | 199 | 7.0 | 11.0 | 0.00 | 0.00 | 0.00 | 52 | 1015.9 |
| 20260503232002 | 62 | 202 | 7.0 | 11.0 | 0.00 | 0.00 | 0.00 | 52 | 1016.0 |
| 20260503231901 | 62 | 192 | 6.0 | 11.0 | 0.00 | 0.00 | 0.00 | 52 | 1016.0 |
| 20260503231759 | 62 | 178 | 6.0 | 11.0 | 0.00 | 0.00 | 0.00 | 52 | 1016.0 |
| 20260503231701 | 62 | 188 | 8.0 | 11.0 | 0.00 | 0.00 | 0.00 | 53 | 1016.0 |
| 20260503231601 | 62 | 186 | 9.0 | 11.0 | 0.00 | 0.00 | 0.00 | 53 | 1016.0 |
| 20260503231459 | 62 | 181 | 9.0 | 11.0 | 0.00 | 0.00 | 0.00 | 53 | 1016.0 |
| 20260503231402 | 62 | 183 | 9.0 | 11.0 | 0.00 | 0.00 | 0.00 | 54 | 1016.0 |
| 20260503231159 | 61 | 186 | 10.0 | 10.0 | 0.00 | 0.00 | 0.00 | 54 | 1016.0 |
| 20260503231102 | 61 | 190 | 9.0 | 9.0 | 0.00 | 0.00 | 0.00 | 54 | 1016.0 |
| 20260503231002 | 61 | 197 | 8.0 | 9.0 | 0.00 | 0.00 | 0.00 | 54 | 1016.0 |
| 20260503230859 | 61 | 200 | 7.0 | 10.0 | 0.00 | 0.00 | 0.00 | 55 | 1016.1 |
| 20260503230802 | 61 | 196 | 8.0 | 10.0 | 0.00 | 0.00 | 0.00 | 55 | 1016.1 |
| 20260503230702 | 61 | 214 | 9.0 | 10.0 | 0.00 | 0.00 | 0.00 | 56 | 1016.0 |
| 20260503230503 | 60 | 207 | 7.0 | 10.0 | 0.00 | 0.00 | 0.00 | 57 | 1016.0 |
| 20260503230401 | 60 | 220 | 8.0 | 11.0 | 0.00 | 0.00 | 0.00 | 57 | 1016.0 |
| 20260503230259 | 60 | 223 | 9.0 | 11.0 | 0.00 | 0.00 | 0.00 | 57 | 1016.0 |
| 20260503230203 | 60 | 211 | 8.0 | 11.0 | 0.00 | 0.00 | 0.00 | 58 | 1016.0 |
| 20260503230103 | 60 | 214 | 9.0 | 11.0 | 0.00 | 0.00 | 0.00 | 58 | 1016.0 |
| 20260503230002 | 60 | 221 | 7.0 | 11.0 | 0.00 | 0.00 | 0.00 | 59 | 1016.0 |
| 20260503225902 | 60 | 223 | 8.0 | 11.0 | 0.00 | 0.00 | 0.00 | 59 | 1016.0 |
| 20260503225801 | 60 | 209 | 7.0 | 11.0 | 0.00 | 0.00 | 0.00 | 59 | 1016.0 |
| 20260503225659 | 59 | 211 | 7.0 | 11.0 | 0.00 | 0.00 | 0.00 | 60 | 1016.0 |
| 20260503225501 | 59 | 219 | 7.0 | 11.0 | 0.00 | 0.00 | 0.00 | 61 | 1016.1 |
| 20260503225359 | 59 | 214 | 7.0 | 8.0 | 0.00 | 0.00 | 0.00 | 61 | 1016.0 |
| 20260503225201 | 58 | 192 | 7.0 | 8.0 | 0.00 | 0.00 | 0.00 | 62 | 1016.0 |
| 20260503225059 | 58 | 208 | 7.0 | 8.0 | 0.00 | 0.00 | 0.00 | 63 | 1016.0 |
| 20260503225002 | 58 | 203 | 7.0 | 8.0 | 0.00 | 0.00 | 0.00 | 64 | 1016.0 |
| 20260503224702 | 57 | 207 | 7.0 | 8.0 | 0.00 | 0.00 | 0.00 | 66 | 1016.1 |
| 20260503224601 | 57 | 211 | 7.0 | 8.0 | 0.00 | 0.00 | 0.00 | 67 | 1016.1 |
| 20260503224501 | 56 | 215 | 7.0 | 8.0 | 0.00 | 0.00 | 0.00 | 67 | 1016.1 |
| 20260503224402 | 56 | 226 | 6.0 | 8.0 | 0.00 | 0.00 | 0.00 | 68 | 1016.1 |
| 20260503224301 | 56 | 222 | 7.0 | 7.0 | 0.00 | 0.00 | 0.00 | 69 | 1016.1 |
| 20260503224101 | 55 | 215 | 7.0 | 7.0 | 0.00 | 0.00 | 0.00 | 70 | 1016.1 |
| 20260503224001 | 55 | 216 | 6.0 | 7.0 | 0.00 | 0.00 | 0.00 | 70 | 1016.1 |
| 20260503223859 | 55 | 215 | 6.0 | 7.0 | 0.00 | 0.00 | 0.00 | 71 | 1016.1 |
| 20260503223802 | 55 | 221 | 7.0 | 7.0 | 0.00 | 0.00 | 0.00 | 72 | 1016.1 |
| 20260503223702 | 55 | 215 | 6.0 | 6.0 | 0.00 | 0.00 | 0.00 | 73 | 1016.1 |
| 20260503223600 | 55 | 220 | 6.0 | 6.0 | 0.00 | 0.00 | 0.00 | 73 | 1016.1 |
| 20260503223401 | 54 | 223 | 6.0 | 6.0 | 0.00 | 0.00 | 0.00 | 74 | 1016.1 |
| 20260503223301 | 54 | 200 | 4.0 | 6.0 | 0.00 | 0.00 | 0.00 | 74 | 1016.1 |
| 20260503223203 | 54 | 227 | 4.0 | 6.0 | 0.00 | 0.00 | 0.00 | 75 | 1016.1 |
| 20260503223102 | 54 | 217 | 4.0 | 6.0 | 0.00 | 0.00 | 0.00 | 76 | 1016.1 |
| 20260503223000 | 54 | 226 | 4.0 | 6.0 | 0.00 | 0.00 | 0.00 | 76 | 1016.1 |
| 20260503222902 | 54 | 224 | 3.0 | 6.0 | 0.00 | 0.00 | 0.00 | 77 | 1016.1 |
| 20260503222801 | 54 | 229 | 4.0 | 6.0 | 0.00 | 0.00 | 0.00 | 77 | 1016.1 |
| 20260503222659 | 54 | 220 | 4.0 | 6.0 | 0.00 | 0.00 | 0.00 | 78 | 1016.1 |
| 20260503222501 | 54 | 216 | 4.0 | 5.0 | 0.00 | 0.00 | 0.00 | 80 | 1016.1 |
| 20260503222359 | 54 | 225 | 3.0 | 5.0 | 0.00 | 0.00 | 0.00 | 80 | 1016.1 |
| 20260503222304 | 54 | 217 | 3.0 | 4.0 | 0.00 | 0.00 | 0.00 | 80 | 1016.1 |
| 20260503222201 | 54 | 223 | 3.0 | 4.0 | 0.00 | 0.00 | 0.00 | 80 | 1016.1 |
| 20260503222059 | 54 | 211 | 1.0 | 4.0 | 0.00 | 0.00 | 0.00 | 81 | 1016.1 |
| 20260503222002 | 54 | 211 | 2.0 | 4.0 | 0.00 | 0.00 | 0.00 | 80 | 1016.1 |
| 20260503221901 | 54 | 211 | 1.0 | 4.0 | 0.00 | 0.00 | 0.00 | 80 | 1016.1 |
| 20260503221759 | 54 | 211 | 1.0 | 4.0 | 0.00 | 0.00 | 0.00 | 80 | 1016.1 |
| 20260503221702 | 54 | 211 | 2.0 | 4.0 | 0.00 | 0.00 | 0.00 | 80 | 1016.1 |
| 20260503221601 | 54 | 196 | 2.0 | 4.0 | 0.00 | 0.00 | 0.00 | 80 | 1016.1 |
| 20260503221459 | 54 | 210 | 3.0 | 4.0 | 0.00 | 0.00 | 0.00 | 80 | 1016.1 |
| 20260503221402 | 54 | 184 | 3.0 | 4.0 | 0.00 | 0.00 | 0.00 | 80 | 1016.1 |
| 20260503221304 | 54 | 158 | 2.0 | 3.0 | 0.00 | 0.00 | 0.00 | 81 | 1016.1 |
| 20260503221200 | 54 | 158 | 2.0 | 3.0 | 0.00 | 0.00 | 0.00 | 81 | 1016.1 |
| 20260503221105 | 54 | 158 | 3.0 | 3.0 | 0.00 | 0.00 | 0.00 | 81 | 1016.1 |
| 20260503221006 | 54 | 158 | 3.0 | 3.0 | 0.00 | 0.00 | 0.00 | 82 | 1016.1 |
| 20260503220859 | 54 | 155 | 2.0 | 2.0 | 0.00 | 0.00 | 0.00 | 82 | 1016.1 |
| 20260503220803 | 54 | 155 | 2.0 | 2.0 | 0.00 | 0.00 | 0.00 | 82 | 1016.1 |
| 20260503220659 | 54 | 155 | 1.0 | 2.0 | 0.00 | 0.00 | 0.00 | 82 | 1016.1 |
| 20260503220505 | 54 | 155 | 1.0 | 2.0 | 0.00 | 0.00 | 0.00 | 82 | 1016.0 |
| 20260503220400 | 54 | 155 | 2.0 | 2.0 | 0.00 | 0.00 | 0.00 | 82 | 1016.0 |
| 20260503220202 | 54 | 232 | 1.0 | 1.0 | 0.00 | 0.00 | 0.00 | 82 | 1016.0 |
| 20260503220118 | 55 | 232 | 0.0 | 2.0 | 0.00 | 0.00 | 0.00 | 82 | 1016.0 |
| 20260503220009 | 54 | 232 | 0.0 | 2.0 | 0.00 | 0.00 | 0.00 | 81 | 1016.1 |
| 20260503215903 | 55 | 232 | 0.0 | 2.0 | 0.00 | 0.00 | 0.00 | 81 | 1016.0 |
| 20260503215800 | 55 | 232 | 0.0 | 2.0 | 0.00 | 0.00 | 0.00 | 81 | 1016.0 |
| 20260503215702 | 55 | 232 | 0.0 | 2.0 | 0.00 | 0.00 | 0.00 | 81 | 1016.0 |
| 20260503215602 | 55 | 232 | 0.0 | 2.0 | 0.00 | 0.00 | 0.00 | 81 | 1016.0 |
| 20260503215500 | 55 | 232 | 0.0 | 2.0 | 0.00 | 0.00 | 0.00 | 81 | 1016.0 |
| 20260503215402 | 55 | 232 | 0.0 | 2.0 | 0.00 | 0.00 | 0.00 | 81 | 1016.0 |
| 20260503215200 | 55 | 232 | 1.0 | 2.0 | 0.00 | 0.00 | 0.00 | 81 | 1016.0 |
| 20260503215102 | 55 | 232 | 1.0 | 2.0 | 0.00 | 0.00 | 0.00 | 81 | 1016.0 |
| 20260503214900 | 55 | 232 | 1.0 | 2.0 | 0.00 | 0.00 | 0.00 | 81 | 1015.9 |
| 20260503214802 | 55 | 232 | 1.0 | 2.0 | 0.00 | 0.00 | 0.00 | 81 | 1015.9 |
| 20260503214703 | 55 | 232 | 0.0 | 3.0 | 0.00 | 0.00 | 0.00 | 81 | 1016.0 |
| 20260503214403 | 55 | 232 | 0.0 | 3.0 | 0.00 | 0.00 | 0.00 | 80 | 1016.0 |
| 20260503214300 | 54 | 232 | 0.0 | 3.0 | 0.00 | 0.00 | 0.00 | 80 | 1016.0 |
| 20260503214203 | 54 | 232 | 0.0 | 3.0 | 0.00 | 0.00 | 0.00 | 80 | 1016.0 |
| 20260503214103 | 54 | 232 | 1.0 | 4.0 | 0.00 | 0.00 | 0.00 | 80 | 1016.0 |
| 20260503214001 | 54 | 232 | 0.0 | 4.0 | 0.00 | 0.00 | 0.00 | 80 | 1016.0 |
| 20260503213902 | 54 | 232 | 2.0 | 4.0 | 0.00 | 0.00 | 0.00 | 80 | 1016.0 |
| 20260503213603 | 54 | 226 | 1.0 | 4.0 | 0.00 | 0.00 | 0.00 | 80 | 1016.0 |
| 20260503213401 | 54 | 226 | 2.0 | 4.0 | 0.00 | 0.00 | 0.00 | 80 | 1016.0 |
| 20260503213204 | 55 | 227 | 3.0 | 4.0 | 0.00 | 0.00 | 0.00 | 80 | 1016.0 |
| 20260503213100 | 55 | 219 | 2.0 | 2.0 | 0.00 | 0.00 | 0.00 | 80 | 1016.0 |
| 20260503213005 | 55 | 167 | 1.0 | 2.0 | 0.00 | 0.00 | 0.00 | 80 | 1016.0 |
| 20260503212700 | 55 | 140 | 0.0 | 2.0 | 0.00 | 0.00 | 0.00 | 80 | 1016.0 |
| 20260503212606 | 55 | 140 | 0.0 | 2.0 | 0.00 | 0.00 | 0.00 | 80 | 1016.0 |
| 20260503212501 | 55 | 140 | 1.0 | 2.0 | 0.00 | 0.00 | 0.00 | 80 | 1016.0 |
| 20260503212402 | 55 | 140 | 0.0 | 2.0 | 0.00 | 0.00 | 0.00 | 80 | 1015.9 |
| 20260503212305 | 55 | 140 | 1.0 | 2.0 | 0.00 | 0.00 | 0.00 | 80 | 1015.9 |
| 20260503212203 | 55 | 140 | 1.0 | 2.0 | 0.00 | 0.00 | 0.00 | 80 | 1016.0 |
| 20260503212101 | 55 | 140 | 1.0 | 2.0 | 0.00 | 0.00 | 0.00 | 79 | 1015.9 |
| 20260503212003 | 55 | 140 | 1.0 | 2.0 | 0.00 | 0.00 | 0.00 | 79 | 1015.9 |
| 20260503211900 | 55 | 140 | 0.0 | 2.0 | 0.00 | 0.00 | 0.00 | 79 | 1015.9 |
| 20260503211800 | 55 | 140 | 2.0 | 2.0 | 0.00 | 0.00 | 0.00 | 79 | 1015.9 |
| 20260503211703 | 55 | 140 | 1.0 | 3.0 | 0.00 | 0.00 | 0.00 | 79 | 1016.0 |
| 20260503211600 | 55 | 140 | 2.0 | 3.0 | 0.00 | 0.00 | 0.00 | 79 | 1015.9 |
| 20260503211501 | 55 | 140 | 1.0 | 3.0 | 0.00 | 0.00 | 0.00 | 79 | 1016.0 |
| 20260503211405 | 55 | 140 | 1.0 | 3.0 | 0.00 | 0.00 | 0.00 | 79 | 1016.0 |
| 20260503211200 | 56 | 140 | 1.0 | 4.0 | 0.00 | 0.00 | 0.00 | 79 | 1016.0 |
| 20260503211105 | 56 | 140 | 1.0 | 4.0 | 0.00 | 0.00 | 0.00 | 79 | 1016.0 |
| 20260503211001 | 56 | 140 | 1.0 | 4.0 | 0.00 | 0.00 | 0.00 | 79 | 1016.0 |
| 20260503210900 | 56 | 140 | 2.0 | 4.0 | 0.00 | 0.00 | 0.00 | 79 | 1016.0 |
| 20260503210803 | 56 | 140 | 2.0 | 4.0 | 0.00 | 0.00 | 0.00 | 79 | 1016.0 |
| 20260503210700 | 56 | 140 | 1.0 | 4.0 | 0.00 | 0.00 | 0.00 | 79 | 1016.0 |
| 20260503210600 | 56 | 140 | 1.0 | 4.0 | 0.00 | 0.00 | 0.00 | 79 | 1016.0 |
| 20260503210301 | 56 | 140 | 2.0 | 5.0 | 0.00 | 0.00 | 0.00 | 78 | 1016.0 |
| 20260503210203 | 56 | 140 | 4.0 | 5.0 | 0.00 | 0.00 | 0.00 | 79 | 1016.0 |
| 20260503210005 | 56 | 141 | 1.0 | 5.0 | 0.00 | 0.00 | 0.00 | 79 | 1016.0 |
| 20260503205903 | 56 | 141 | 1.0 | 5.0 | 0.00 | 0.00 | 0.00 | 79 | 1016.0 |
| 20260503205800 | 56 | 140 | 2.0 | 5.0 | 0.00 | 0.00 | 0.00 | 79 | 1016.0 |
| 20260503205603 | 55 | 140 | 2.0 | 5.0 | 0.00 | 0.00 | 0.00 | 79 | 1016.0 |
| 20260503205500 | 55 | 140 | 4.0 | 5.0 | 0.00 | 0.00 | 0.00 | 79 | 1016.0 |
| 20260503205400 | 55 | 140 | 4.0 | 5.0 | 0.00 | 0.00 | 0.00 | 79 | 1016.0 |
| 20260503205304 | 55 | 144 | 2.0 | 5.0 | 0.00 | 0.00 | 0.00 | 79 | 1016.0 |
| 20260503205200 | 55 | 144 | 3.0 | 5.0 | 0.00 | 0.00 | 0.00 | 79 | 1016.0 |
| 20260503205100 | 55 | 144 | 4.0 | 5.0 | 0.00 | 0.00 | 0.00 | 79 | 1015.9 |
| 20260503205004 | 55 | 142 | 4.0 | 5.0 | 0.00 | 0.00 | 0.00 | 79 | 1015.9 |
| 20260503204900 | 55 | 137 | 5.0 | 5.0 | 0.00 | 0.00 | 0.00 | 79 | 1016.0 |
| 20260503204703 | 56 | 136 | 2.0 | 5.0 | 0.00 | 0.00 | 0.00 | 79 | 1015.9 |
| 20260503204600 | 56 | 136 | 2.0 | 5.0 | 0.00 | 0.00 | 0.00 | 79 | 1015.9 |
| 20260503204500 | 56 | 136 | 2.0 | 5.0 | 0.00 | 0.00 | 0.00 | 79 | 1015.9 |
| 20260503204403 | 56 | 136 | 2.0 | 5.0 | 0.00 | 0.00 | 0.00 | 79 | 1015.9 |
| 20260503204300 | 56 | 136 | 2.0 | 5.0 | 0.00 | 0.00 | 0.00 | 79 | 1015.9 |
| 20260503204201 | 56 | 136 | 1.0 | 5.0 | 0.00 | 0.00 | 0.00 | 79 | 1015.9 |
| 20260503204001 | 56 | 136 | 2.0 | 5.0 | 0.00 | 0.00 | 0.00 | 79 | 1015.9 |
| 20260503203900 | 56 | 136 | 3.0 | 5.0 | 0.00 | 0.00 | 0.00 | 79 | 1015.9 |
| 20260503203804 | 56 | 136 | 3.0 | 5.0 | 0.00 | 0.00 | 0.00 | 79 | 1015.8 |
| 20260503203600 | 56 | 136 | 4.0 | 5.0 | 0.00 | 0.00 | 0.00 | 79 | 1015.9 |
| 20260503203503 | 56 | 140 | 2.0 | 5.0 | 0.00 | 0.00 | 0.00 | 79 | 1015.9 |
| 20260503203400 | 56 | 165 | 2.0 | 5.0 | 0.00 | 0.00 | 0.00 | 79 | 1015.9 |
| 20260503203203 | 56 | 140 | 4.0 | 5.0 | 0.00 | 0.00 | 0.00 | 79 | 1015.9 |
| 20260503203100 | 56 | 140 | 4.0 | 5.0 | 0.00 | 0.00 | 0.00 | 79 | 1015.9 |
| 20260503202904 | 56 | 180 | 4.0 | 4.0 | 0.00 | 0.00 | 0.00 | 79 | 1015.9 |
| 20260503202800 | 56 | 180 | 2.0 | 5.0 | 0.00 | 0.00 | 0.00 | 79 | 1015.9 |
| 20260503202700 | 56 | 180 | 2.0 | 5.0 | 0.00 | 0.00 | 0.00 | 79 | 1015.9 |
| 20260503202603 | 56 | 180 | 2.0 | 5.0 | 0.00 | 0.00 | 0.00 | 78 | 1015.9 |
| 20260503202500 | 56 | 180 | 2.0 | 5.0 | 0.00 | 0.00 | 0.00 | 78 | 1015.9 |
| 20260503202400 | 56 | 180 | 1.0 | 5.0 | 0.00 | 0.00 | 0.00 | 78 | 1015.9 |
| 20260503202304 | 56 | 180 | 2.0 | 5.0 | 0.00 | 0.00 | 0.00 | 78 | 1015.8 |
| 20260503202200 | 56 | 180 | 3.0 | 5.0 | 0.00 | 0.00 | 0.00 | 78 | 1015.9 |
| 20260503202100 | 56 | 180 | 1.0 | 5.0 | 0.00 | 0.00 | 0.00 | 78 | 1015.9 |
| 20260503202004 | 56 | 180 | 2.0 | 5.0 | 0.00 | 0.00 | 0.00 | 78 | 1015.9 |
| 20260503201703 | 56 | 188 | 3.0 | 5.0 | 0.00 | 0.00 | 0.00 | 78 | 1015.9 |
| 20260503201600 | 56 | 188 | 2.0 | 5.0 | 0.00 | 0.00 | 0.00 | 78 | 1015.9 |
| 20260503201500 | 56 | 188 | 3.0 | 5.0 | 0.00 | 0.00 | 0.00 | 78 | 1015.9 |
| 20260503201403 | 56 | 188 | 2.0 | 5.0 | 0.00 | 0.00 | 0.00 | 78 | 1015.9 |
| 20260503201104 | 56 | 188 | 3.0 | 6.0 | 0.00 | 0.00 | 0.00 | 78 | 1015.8 |
| 20260503201003 | 56 | 188 | 3.0 | 6.0 | 0.00 | 0.00 | 0.00 | 78 | 1015.8 |
| 20260503200900 | 56 | 188 | 4.0 | 6.0 | 0.00 | 0.00 | 0.00 | 78 | 1015.9 |
| 20260503200804 | 56 | 188 | 2.0 | 6.0 | 0.00 | 0.00 | 0.00 | 78 | 1015.9 |
| 20260503200700 | 56 | 188 | 4.0 | 6.0 | 0.00 | 0.00 | 0.00 | 78 | 1015.8 |
| 20260503200600 | 56 | 188 | 3.0 | 6.0 | 0.00 | 0.00 | 0.00 | 78 | 1015.8 |
| 20260503200503 | 56 | 188 | 4.0 | 6.0 | 0.00 | 0.00 | 0.00 | 78 | 1015.8 |
| 20260503200400 | 56 | 188 | 4.0 | 6.0 | 0.00 | 0.00 | 0.00 | 78 | 1015.8 |
| 20260503200203 | 57 | 188 | 6.0 | 6.0 | 0.00 | 0.00 | 0.00 | 77 | 1015.8 |
| 20260503200128 | 57 | 190 | 4.0 | 6.0 | 0.00 | 0.00 | 0.00 | 77 | 1015.8 |
| 20260503195903 | 57 | 190 | 3.0 | 6.0 | 0.00 | 0.00 | 0.00 | 78 | 1015.8 |
| 20260503195800 | 57 | 190 | 3.0 | 6.0 | 0.00 | 0.00 | 0.00 | 78 | 1015.8 |
| 20260503195603 | 57 | 190 | 6.0 | 6.0 | 0.00 | 0.00 | 0.00 | 78 | 1015.8 |
| 20260503195501 | 57 | 198 | 4.0 | 5.0 | 0.00 | 0.00 | 0.00 | 78 | 1015.8 |
| 20260503195401 | 57 | 198 | 4.0 | 5.0 | 0.00 | 0.00 | 0.00 | 78 | 1015.8 |
| 20260503195304 | 57 | 203 | 4.0 | 5.0 | 0.00 | 0.00 | 0.00 | 78 | 1015.8 |
| 20260503195200 | 57 | 193 | 3.0 | 5.0 | 0.00 | 0.00 | 0.00 | 78 | 1015.8 |
| 20260503195100 | 57 | 189 | 4.0 | 5.0 | 0.00 | 0.00 | 0.00 | 78 | 1015.8 |
| 20260503195006 | 57 | 189 | 4.0 | 5.0 | 0.00 | 0.00 | 0.00 | 78 | 1015.8 |
| 20260503194900 | 57 | 189 | 4.0 | 5.0 | 0.00 | 0.00 | 0.00 | 78 | 1015.8 |
| 20260503194800 | 57 | 189 | 3.0 | 5.0 | 0.00 | 0.00 | 0.00 | 78 | 1015.8 |
| 20260503194702 | 57 | 189 | 4.0 | 5.0 | 0.00 | 0.00 | 0.00 | 78 | 1015.8 |
| 20260503194600 | 57 | 189 | 4.0 | 5.0 | 0.00 | 0.00 | 0.00 | 78 | 1015.8 |
| 20260503194500 | 57 | 189 | 4.0 | 6.0 | 0.00 | 0.00 | 0.00 | 78 | 1015.8 |
| 20260503194300 | 57 | 199 | 4.0 | 6.0 | 0.00 | 0.00 | 0.00 | 78 | 1015.7 |
| 20260503194200 | 57 | 199 | 3.0 | 6.0 | 0.00 | 0.00 | 0.00 | 78 | 1015.6 |
| 20260503194104 | 57 | 199 | 3.0 | 6.0 | 0.00 | 0.00 | 0.00 | 78 | 1015.7 |
| 20260503194000 | 58 | 199 | 3.0 | 6.0 | 0.00 | 0.00 | 0.00 | 78 | 1015.6 |
| 20260503193900 | 58 | 199 | 3.0 | 6.0 | 0.00 | 0.00 | 0.00 | 78 | 1015.6 |
| 20260503193803 | 58 | 199 | 4.0 | 6.0 | 0.00 | 0.00 | 0.00 | 78 | 1015.6 |
| 20260503193700 | 58 | 199 | 3.0 | 6.0 | 0.00 | 0.00 | 0.00 | 78 | 1015.6 |
| 20260503193503 | 58 | 198 | 5.0 | 9.0 | 0.00 | 0.00 | 0.00 | 78 | 1015.6 |
| 20260503193203 | 58 | 199 | 4.0 | 9.0 | 0.00 | 0.00 | 0.00 | 77 | 1015.6 |
| 20260503193100 | 58 | 218 | 3.0 | 9.0 | 0.00 | 0.00 | 0.00 | 77 | 1015.6 |
| 20260503193001 | 58 | 218 | 4.0 | 9.0 | 0.00 | 0.00 | 0.00 | 77 | 1015.6 |
| 20260503192903 | 58 | 220 | 4.0 | 9.0 | 0.00 | 0.00 | 0.00 | 77 | 1015.7 |
| 20260503192803 | 58 | 191 | 4.0 | 9.0 | 0.00 | 0.00 | 0.00 | 77 | 1015.6 |
| 20260503192700 | 58 | 191 | 4.0 | 9.0 | 0.00 | 0.00 | 0.00 | 77 | 1015.6 |
| 20260503192501 | 59 | 196 | 4.0 | 5.0 | 0.00 | 0.00 | 0.00 | 76 | 1015.6 |
| 20260503192400 | 59 | 196 | 3.0 | 4.0 | 0.00 | 0.00 | 0.00 | 76 | 1015.6 |
| 20260503192305 | 59 | 196 | 3.0 | 4.0 | 0.00 | 0.00 | 0.00 | 75 | 1015.6 |
| 20260503192159 | 59 | 196 | 3.0 | 4.0 | 0.00 | 0.00 | 0.00 | 75 | 1015.6 |
| 20260503192100 | 59 | 196 | 4.0 | 4.0 | 0.00 | 0.00 | 0.00 | 74 | 1015.5 |
| 20260503192004 | 59 | 196 | 4.0 | 4.0 | 0.00 | 0.00 | 0.00 | 74 | 1015.5 |
| 20260503191901 | 59 | 196 | 3.0 | 4.0 | 0.00 | 0.00 | 0.00 | 74 | 1015.5 |
| 20260503191703 | 59 | 196 | 4.0 | 4.0 | 0.00 | 0.00 | 0.00 | 74 | 1015.5 |
| 20260503191605 | 59 | 196 | 3.0 | 4.0 | 0.00 | 0.00 | 0.00 | 74 | 1015.5 |
| 20260503191503 | 59 | 196 | 3.0 | 5.0 | 0.00 | 0.00 | 0.00 | 74 | 1015.6 |
| 20260503191404 | 60 | 196 | 3.0 | 5.0 | 0.00 | 0.00 | 0.00 | 74 | 1015.5 |
| 20260503191303 | 60 | 196 | 2.0 | 5.0 | 0.00 | 0.00 | 0.00 | 74 | 1015.5 |
| 20260503191103 | 60 | 196 | 4.0 | 5.0 | 0.00 | 0.00 | 0.00 | 73 | 1015.5 |
| 20260503191002 | 60 | 196 | 2.0 | 5.0 | 0.00 | 0.00 | 0.00 | 73 | 1015.5 |
| 20260503190900 | 60 | 196 | 4.0 | 5.0 | 0.00 | 0.00 | 0.00 | 73 | 1015.5 |
| 20260503190701 | 60 | 196 | 3.0 | 5.0 | 0.00 | 0.00 | 0.00 | 73 | 1015.5 |
| 20260503190600 | 60 | 196 | 4.0 | 5.0 | 0.00 | 0.00 | 0.00 | 73 | 1015.5 |
| 20260503190504 | 60 | 181 | 4.0 | 5.0 | 0.00 | 0.00 | 0.00 | 73 | 1015.5 |
| 20260503190300 | 61 | 181 | 3.0 | 5.0 | 0.00 | 0.00 | 0.00 | 73 | 1015.5 |
| 20260503190004 | 61 | 181 | 3.0 | 5.0 | 0.00 | 0.00 | 0.00 | 72 | 1015.5 |
| 20260503185903 | 61 | 181 | 5.0 | 5.0 | 0.00 | 0.00 | 0.00 | 72 | 1015.5 |
| 20260503185800 | 61 | 181 | 4.0 | 5.0 | 0.00 | 0.00 | 0.00 | 72 | 1015.5 |
| 20260503185700 | 61 | 181 | 4.0 | 5.0 | 0.00 | 0.00 | 0.00 | 72 | 1015.5 |
| 20260503185603 | 61 | 181 | 1.0 | 5.0 | 0.00 | 0.00 | 0.00 | 72 | 1015.5 |
| 20260503185501 | 61 | 181 | 2.0 | 5.0 | 0.00 | 0.00 | 0.00 | 72 | 1015.5 |
| 20260503185305 | 61 | 181 | 2.0 | 7.0 | 0.00 | 0.00 | 0.00 | 72 | 1015.5 |
| 20260503185200 | 62 | 181 | 4.0 | 7.0 | 0.00 | 0.00 | 0.00 | 72 | 1015.5 |
| 20260503185059 | 62 | 181 | 3.0 | 7.0 | 0.00 | 0.00 | 0.00 | 72 | 1015.5 |
| 20260503185005 | 62 | 181 | 3.0 | 7.0 | 0.00 | 0.00 | 0.00 | 72 | 1015.5 |
| 20260503184900 | 62 | 181 | 1.0 | 7.0 | 0.00 | 0.00 | 0.00 | 71 | 1015.5 |
| 20260503184800 | 62 | 181 | 1.0 | 7.0 | 0.00 | 0.00 | 0.00 | 71 | 1015.5 |
| 20260503184703 | 62 | 181 | 2.0 | 7.0 | 0.00 | 0.00 | 0.00 | 71 | 1015.5 |
| 20260503184600 | 62 | 181 | 4.0 | 7.0 | 0.00 | 0.00 | 0.00 | 71 | 1015.4 |
| 20260503184501 | 62 | 182 | 5.0 | 7.0 | 0.00 | 0.00 | 0.00 | 71 | 1015.4 |
| 20260503184403 | 62 | 184 | 6.0 | 7.0 | 0.00 | 0.00 | 0.00 | 71 | 1015.4 |
| 20260503184301 | 62 | 116 | 2.0 | 4.0 | 0.00 | 0.00 | 0.00 | 70 | 1015.4 |
| 20260503184200 | 62 | 116 | 4.0 | 5.0 | 0.00 | 0.00 | 0.00 | 70 | 1015.4 |
| 20260503184103 | 62 | 109 | 3.0 | 6.0 | 0.00 | 0.00 | 0.00 | 70 | 1015.3 |
| 20260503184000 | 62 | 105 | 3.0 | 6.0 | 0.00 | 0.00 | 0.00 | 69 | 1015.3 |
| 20260503183900 | 63 | 202 | 2.0 | 6.0 | 0.00 | 0.00 | 0.00 | 69 | 1015.4 |
| 20260503183803 | 63 | 202 | 2.0 | 6.0 | 0.00 | 0.00 | 0.00 | 69 | 1015.4 |
| 20260503183700 | 63 | 202 | 1.0 | 6.0 | 0.00 | 0.00 | 0.00 | 69 | 1015.4 |
| 20260503183600 | 63 | 202 | 0.0 | 6.0 | 0.00 | 0.00 | 0.00 | 68 | 1015.4 |
| 20260503183503 | 63 | 202 | 2.0 | 6.0 | 0.00 | 0.00 | 0.00 | 68 | 1015.3 |
| 20260503183400 | 63 | 202 | 3.0 | 6.0 | 0.00 | 0.00 | 0.00 | 68 | 1015.4 |
| 20260503183300 | 63 | 202 | 4.0 | 6.0 | 0.00 | 0.00 | 0.00 | 68 | 1015.3 |
| 20260503183203 | 63 | 202 | 4.0 | 6.0 | 0.00 | 0.00 | 0.00 | 67 | 1015.4 |
| 20260503183100 | 63 | 202 | 4.0 | 5.0 | 0.00 | 0.00 | 0.00 | 67 | 1015.3 |
| 20260503183003 | 64 | 202 | 4.0 | 5.0 | 0.00 | 0.00 | 0.00 | 67 | 1015.3 |
| 20260503182906 | 64 | 202 | 4.0 | 5.0 | 0.00 | 0.00 | 0.00 | 66 | 1015.3 |
| 20260503182801 | 64 | 202 | 4.0 | 5.0 | 0.00 | 0.00 | 0.00 | 66 | 1015.3 |
| 20260503182700 | 64 | 202 | 4.0 | 5.0 | 0.00 | 0.00 | 0.00 | 66 | 1015.3 |
| 20260503182607 | 64 | 202 | 4.0 | 4.0 | 0.00 | 0.00 | 0.00 | 66 | 1015.3 |
| 20260503182503 | 64 | 202 | 4.0 | 4.0 | 0.00 | 0.00 | 0.00 | 65 | 1015.4 |
| 20260503182400 | 64 | 202 | 3.0 | 4.0 | 0.00 | 0.00 | 0.00 | 64 | 1015.3 |
| 20260503182201 | 65 | 202 | 2.0 | 4.0 | 0.00 | 0.00 | 0.00 | 64 | 1015.3 |
| 20260503182104 | 65 | 202 | 3.0 | 4.0 | 0.00 | 0.00 | 0.00 | 64 | 1015.2 |
| 20260503182007 | 65 | 202 | 3.0 | 4.0 | 0.00 | 0.00 | 0.00 | 64 | 1015.2 |
| 20260503181904 | 65 | 202 | 3.0 | 4.0 | 0.00 | 0.00 | 0.00 | 64 | 1015.2 |
| 20260503181706 | 65 | 202 | 3.0 | 4.0 | 0.00 | 0.00 | 0.00 | 63 | 1015.2 |
| 20260503181500 | 66 | 202 | 4.0 | 4.0 | 0.00 | 0.00 | 0.00 | 63 | 1015.3 |
| 20260503181403 | 66 | 202 | 4.0 | 4.0 | 0.00 | 0.00 | 0.00 | 63 | 1015.3 |
| 20260503181300 | 66 | 202 | 3.0 | 4.0 | 0.00 | 0.00 | 0.00 | 63 | 1015.3 |
| 20260503181103 | 66 | 202 | 4.0 | 4.0 | 0.00 | 0.00 | 0.00 | 63 | 1015.3 |
| 20260503181000 | 66 | 207 | 3.0 | 4.0 | 0.00 | 0.00 | 0.00 | 63 | 1015.2 |
| 20260503180900 | 66 | 207 | 3.0 | 4.0 | 0.00 | 0.00 | 0.00 | 63 | 1015.2 |
| 20260503180803 | 67 | 207 | 3.0 | 4.0 | 0.00 | 0.00 | 0.00 | 62 | 1015.2 |
| 20260503180700 | 67 | 207 | 2.0 | 3.0 | 0.00 | 0.00 | 0.00 | 62 | 1015.2 |
| 20260503180600 | 67 | 109 | 2.0 | 3.0 | 0.00 | 0.00 | 0.00 | 62 | 1015.2 |
| 20260503180400 | 67 | 109 | 2.0 | 3.0 | 0.00 | 0.00 | 0.00 | 62 | 1015.2 |
| 20260503180300 | 68 | 109 | 2.0 | 3.0 | 0.00 | 0.00 | 0.00 | 61 | 1015.2 |
| 20260503180203 | 68 | 109 | 1.0 | 3.0 | 0.00 | 0.00 | 0.00 | 61 | 1015.2 |
| 20260503180117 | 68 | 109 | 1.0 | 3.0 | 0.00 | 0.00 | 0.00 | 60 | 1015.2 |
| 20260503180004 | 68 | 109 | 1.0 | 3.0 | 0.00 | 0.00 | 0.00 | 60 | 1015.2 |
| 20260503175903 | 68 | 109 | 2.0 | 3.0 | 0.00 | 0.00 | 0.00 | 60 | 1015.2 |
| 20260503175800 | 69 | 109 | 2.0 | 3.0 | 0.00 | 0.00 | 0.00 | 60 | 1015.2 |
| 20260503175602 | 69 | 109 | 2.0 | 3.0 | 0.00 | 0.00 | 0.00 | 58 | 1015.2 |
| 20260503175400 | 69 | 109 | 2.0 | 3.0 | 0.00 | 0.00 | 0.00 | 57 | 1015.2 |
| 20260503175304 | 69 | 109 | 1.0 | 3.0 | 0.00 | 0.00 | 0.00 | 57 | 1015.2 |
| 20260503175200 | 69 | 109 | 1.0 | 4.0 | 0.00 | 0.00 | 0.00 | 57 | 1015.2 |
| 20260503175100 | 70 | 109 | 2.0 | 4.0 | 0.00 | 0.00 | 0.00 | 57 | 1015.2 |
| 20260503175005 | 70 | 109 | 2.0 | 4.0 | 0.00 | 0.00 | 0.00 | 57 | 1015.1 |
| 20260503174900 | 70 | 109 | 1.0 | 4.0 | 0.00 | 0.00 | 0.00 | 57 | 1015.1 |
| 20260503174800 | 70 | 109 | 1.0 | 4.0 | 0.00 | 0.00 | 0.00 | 57 | 1015.2 |
| 20260503174702 | 70 | 109 | 1.0 | 4.0 | 0.00 | 0.00 | 0.00 | 57 | 1015.1 |
| 20260503174600 | 70 | 109 | 1.0 | 4.0 | 0.00 | 0.00 | 0.00 | 56 | 1015.2 |
| 20260503174500 | 70 | 109 | 1.0 | 6.0 | 0.00 | 0.00 | 0.00 | 56 | 1015.2 |
| 20260503174402 | 70 | 109 | 2.0 | 6.0 | 0.00 | 0.00 | 0.00 | 55 | 1015.1 |
| 20260503174300 | 70 | 109 | 2.0 | 6.0 | 0.00 | 0.00 | 0.00 | 55 | 1015.2 |
| 20260503174200 | 70 | 109 | 2.0 | 6.0 | 0.00 | 0.00 | 0.00 | 55 | 1015.1 |
| 20260503174102 | 71 | 109 | 3.0 | 6.0 | 0.00 | 0.00 | 0.00 | 55 | 1015.1 |
| 20260503174001 | 71 | 109 | 2.0 | 7.0 | 0.00 | 0.00 | 0.00 | 55 | 1015.1 |
| 20260503173900 | 71 | 117 | 1.0 | 7.0 | 0.00 | 0.00 | 0.00 | 54 | 1015.1 |
| 20260503173804 | 71 | 117 | 3.0 | 7.0 | 0.00 | 0.00 | 0.00 | 55 | 1015.1 |
| 20260503173700 | 71 | 117 | 3.0 | 7.0 | 0.00 | 0.00 | 0.00 | 55 | 1015.0 |
| 20260503173559 | 71 | 107 | 4.0 | 7.0 | 0.00 | 0.00 | 0.00 | 54 | 1015.0 |
| 20260503173507 | 71 | 119 | 4.0 | 7.0 | 0.00 | 0.00 | 0.00 | 54 | 1015.0 |
| 20260503173400 | 71 | 110 | 5.0 | 9.0 | 0.00 | 0.00 | 0.00 | 55 | 1015.1 |
| 20260503173102 | 72 | 129 | 5.0 | 9.0 | 0.00 | 0.00 | 0.00 | 54 | 1015.1 |
| 20260503173003 | 72 | 135 | 3.0 | 9.0 | 0.00 | 0.00 | 0.00 | 54 | 1015.1 |
| 20260503172800 | 72 | 109 | 5.0 | 9.0 | 0.00 | 0.00 | 0.00 | 56 | 1015.1 |
| 20260503172701 | 72 | 119 | 3.0 | 9.0 | 0.00 | 0.00 | 0.00 | 55 | 1015.1 |
| 20260503172605 | 72 | 111 | 4.0 | 9.0 | 0.00 | 0.00 | 0.00 | 55 | 1015.1 |
| 20260503172400 | 72 | 98 | 3.0 | 7.0 | 0.00 | 0.00 | 0.00 | 55 | 1015.1 |
| 20260503172200 | 73 | 98 | 3.0 | 7.0 | 0.00 | 0.00 | 0.00 | 56 | 1015.0 |
| 20260503172100 | 73 | 80 | 5.0 | 7.0 | 0.00 | 0.00 | 0.00 | 56 | 1015.0 |
| 20260503172004 | 73 | 80 | 3.0 | 7.0 | 0.00 | 0.00 | 0.00 | 55 | 1015.0 |
| 20260503171800 | 73 | 87 | 5.0 | 7.0 | 0.00 | 0.00 | 0.00 | 55 | 1015.0 |
| 20260503171703 | 73 | 101 | 5.0 | 9.0 | 0.00 | 0.00 | 0.00 | 55 | 1015.0 |
| 20260503171604 | 73 | 88 | 6.0 | 9.0 | 0.00 | 0.00 | 0.00 | 56 | 1015.0 |
| 20260503171500 | 73 | 74 | 7.0 | 9.0 | 0.00 | 0.00 | 0.00 | 56 | 1015.0 |
| 20260503171403 | 73 | 92 | 5.0 | 9.0 | 0.00 | 0.00 | 0.00 | 57 | 1015.0 |
| 20260503171300 | 73 | 92 | 3.0 | 9.0 | 0.00 | 0.00 | 0.00 | 57 | 1015.0 |
| 20260503171103 | 73 | 81 | 5.0 | 9.0 | 0.00 | 0.00 | 0.00 | 57 | 1015.1 |
| 20260503171000 | 73 | 67 | 4.0 | 9.0 | 0.00 | 0.00 | 0.00 | 55 | 1015.0 |
| 20260503170900 | 73 | 75 | 5.0 | 9.0 | 0.00 | 0.00 | 0.00 | 55 | 1015.0 |
| 20260503170802 | 73 | 76 | 4.0 | 9.0 | 0.00 | 0.00 | 0.00 | 55 | 1015.0 |
| 20260503170701 | 73 | 54 | 3.0 | 9.0 | 0.00 | 0.00 | 0.00 | 55 | 1015.1 |
| 20260503170600 | 73 | 79 | 6.0 | 9.0 | 0.00 | 0.00 | 0.00 | 55 | 1015.1 |
| 20260503170400 | 74 | 71 | 5.0 | 9.0 | 0.00 | 0.00 | 0.00 | 55 | 1015.0 |
| 20260503170300 | 74 | 53 | 6.0 | 9.0 | 0.00 | 0.00 | 0.00 | 56 | 1015.1 |
| 20260503170203 | 74 | 84 | 6.0 | 9.0 | 0.00 | 0.00 | 0.00 | 55 | 1015.1 |
| 20260503160203 | 77 | 77 | 8.0 | 11.0 | 0.00 | 0.00 | 0.00 | 47 | 1015.1 |
| 20260503160116 | 77 | 86 | 7.0 | 11.0 | 0.00 | 0.00 | 0.00 | 46 | 1015.1 |
| 20260503151001 | 78 | 109 | 7.0 | 14.0 | 0.00 | 0.00 | 0.00 | 44 | 1015.5 |
| 20260503150803 | 78 | 34 | 3.0 | 7.0 | 0.00 | 0.00 | 0.00 | 46 | 1015.6 |
| 20260503150559 | 78 | 21 | 4.0 | 9.0 | 0.00 | 0.00 | 0.00 | 43 | 1015.6 |
| 20260503150504 | 78 | 30 | 3.0 | 9.0 | 0.00 | 0.00 | 0.00 | 45 | 1015.6 |
| 20260503150400 | 78 | 30 | 2.0 | 9.0 | 0.00 | 0.00 | 0.00 | 42 | 1015.6 |
| 20260503150301 | 78 | 30 | 2.0 | 9.0 | 0.00 | 0.00 | 0.00 | 42 | 1015.6 |
| 20260503150203 | 78 | 30 | 5.0 | 9.0 | 0.00 | 0.00 | 0.00 | 43 | 1015.6 |